createdAt,value
2022-10-26T00:00:12.717Z,8.97
2022-10-26T00:00:44.374Z,8.95
2022-10-26T00:01:16.862Z,8.97
2022-10-26T00:01:49.023Z,8.99
2022-10-26T00:02:20.805Z,9.00
2022-10-26T00:02:55.082Z,9.00
2022-10-26T00:03:26.632Z,8.93
2022-10-26T00:03:58.150Z,8.96
2022-10-26T00:04:29.667Z,9.00
2022-10-26T00:05:01.206Z,8.89
2022-10-26T00:05:34.249Z,8.97
2022-10-26T00:06:11.958Z,8.96
2022-10-26T00:06:43.475Z,8.93
2022-10-26T00:07:15.042Z,8.97
2022-10-26T00:07:46.775Z,8.93
2022-10-26T00:08:18.286Z,8.90
2022-10-26T00:08:49.875Z,8.87
2022-10-26T00:09:21.492Z,8.77
2022-10-26T00:09:52.986Z,8.87
2022-10-26T00:10:27.137Z,8.86
2022-10-26T00:11:01.040Z,8.86
2022-10-26T00:11:32.563Z,8.86
2022-10-26T00:12:04.376Z,8.87
2022-10-26T00:12:35.884Z,8.90
2022-10-26T00:13:11.566Z,8.90
2022-10-26T00:13:45.162Z,8.90
2022-10-26T00:14:16.662Z,8.90
2022-10-26T00:14:48.166Z,8.93
2022-10-26T00:15:20.531Z,8.87
2022-10-26T00:15:52.109Z,8.83
2022-10-26T00:16:26.847Z,8.85
2022-10-26T00:16:58.383Z,8.90
2022-10-26T00:17:29.879Z,8.92
2022-10-26T00:18:01.592Z,8.96
2022-10-26T00:18:33.111Z,8.97
2022-10-26T00:19:04.609Z,9.03
2022-10-26T00:19:38.122Z,9.03
2022-10-26T00:20:10.061Z,9.02
2022-10-26T00:20:42.436Z,9.04
2022-10-26T00:21:14.890Z,9.03
2022-10-26T00:21:46.459Z,9.10
2022-10-26T00:22:17.985Z,9.07
2022-10-26T00:22:49.670Z,9.13
2022-10-26T00:23:21.174Z,9.14
2022-10-26T00:23:52.772Z,9.14
2022-10-26T00:24:24.300Z,9.12
2022-10-26T00:24:55.837Z,9.06
2022-10-26T00:25:27.346Z,9.06
2022-10-26T00:25:58.988Z,9.06
2022-10-26T00:26:30.520Z,9.07
2022-10-26T00:27:02.057Z,9.02
2022-10-26T00:27:34.615Z,9.02
2022-10-26T00:28:06.151Z,9.04
2022-10-26T00:28:38.285Z,9.02
2022-10-26T00:29:12.139Z,8.96
2022-10-26T00:29:43.662Z,9.00
2022-10-26T00:30:15.180Z,8.99
2022-10-26T00:30:46.687Z,8.97
2022-10-26T00:31:18.276Z,8.89
2022-10-26T00:31:49.814Z,8.86
2022-10-26T00:32:21.342Z,8.86
2022-10-26T00:32:53.112Z,8.89
2022-10-26T00:33:24.643Z,8.93
2022-10-26T00:33:56.984Z,8.97
2022-10-26T00:34:28.529Z,9.02
2022-10-26T00:35:10.431Z,8.93
2022-10-26T00:35:54.906Z,8.97
2022-10-26T00:36:26.866Z,8.90
2022-10-26T00:36:58.435Z,8.87
2022-10-26T00:37:29.971Z,8.90
2022-10-26T00:38:01.535Z,8.90
2022-10-26T00:38:33.066Z,8.95
2022-10-26T00:39:04.610Z,8.97
2022-10-26T00:39:36.765Z,9.02
2022-10-26T00:40:08.590Z,9.00
2022-10-26T00:40:40.456Z,9.02
2022-10-26T00:41:17.159Z,8.95
2022-10-26T00:41:48.697Z,8.89
2022-10-26T00:42:22.276Z,8.85
2022-10-26T00:42:53.899Z,8.77
2022-10-26T00:43:25.405Z,8.83
2022-10-26T00:43:56.954Z,8.87
2022-10-26T00:44:46.663Z,8.82
2022-10-26T00:45:24.091Z,8.76
2022-10-26T00:45:58.230Z,8.68
2022-10-26T00:46:35.943Z,8.69
2022-10-26T00:47:10.563Z,8.72
2022-10-26T00:47:50.898Z,8.77
2022-10-26T00:48:28.683Z,8.73
2022-10-26T00:49:09.095Z,8.77
2022-10-26T00:49:41.136Z,8.73
2022-10-26T00:50:19.534Z,8.76
2022-10-26T00:50:52.705Z,8.68
2022-10-26T00:51:32.971Z,8.64
2022-10-26T00:52:05.787Z,8.61
2022-10-26T00:52:38.097Z,8.66
2022-10-26T00:53:11.261Z,8.68
2022-10-26T00:53:43.482Z,8.59
2022-10-26T00:54:20.646Z,8.65
2022-10-26T00:54:54.052Z,8.61
2022-10-26T00:55:27.983Z,8.59
2022-10-26T00:56:00.816Z,8.61
2022-10-26T00:56:34.495Z,8.52
2022-10-26T00:57:06.597Z,8.58
2022-10-26T00:57:39.693Z,8.55
2022-10-26T00:58:12.020Z,8.40
2022-10-26T00:58:44.287Z,8.45
2022-10-26T00:59:17.572Z,8.35
2022-10-26T00:59:52.572Z,8.34
2022-10-26T01:00:24.133Z,8.25
2022-10-26T01:00:55.801Z,8.24
2022-10-26T01:01:27.416Z,8.23
2022-10-26T01:01:59.251Z,8.24
2022-10-26T01:02:30.883Z,8.20
2022-10-26T01:03:06.486Z,8.08
2022-10-26T01:03:39.025Z,8.10
2022-10-26T01:04:12.577Z,8.08
2022-10-26T01:04:46.653Z,8.10
2022-10-26T01:05:19.237Z,8.00
2022-10-26T01:05:53.763Z,7.91
2022-10-26T01:06:25.361Z,7.90
2022-10-26T01:06:57.325Z,7.97
2022-10-26T01:07:29.062Z,7.91
2022-10-26T01:08:01.803Z,7.90
2022-10-26T01:08:33.867Z,7.91
2022-10-26T01:09:06.094Z,7.96
2022-10-26T01:09:37.607Z,7.89
2022-10-26T01:10:09.477Z,7.93
2022-10-26T01:10:42.934Z,7.98
2022-10-26T01:11:14.947Z,7.96
2022-10-26T01:11:46.777Z,7.86
2022-10-26T01:12:18.279Z,7.86
2022-10-26T01:12:49.863Z,7.85
2022-10-26T01:13:21.557Z,7.80
2022-10-26T01:13:54.209Z,7.80
2022-10-26T01:14:27.836Z,7.82
2022-10-26T01:14:59.464Z,7.82
2022-10-26T01:15:43.869Z,7.75
2022-10-26T01:16:42.038Z,7.79
2022-10-26T01:17:31.205Z,7.75
2022-10-26T01:18:15.379Z,7.76
2022-10-26T01:18:58.689Z,7.70
2022-10-26T01:19:54.535Z,7.66
2022-10-26T01:21:01.344Z,7.65
2022-10-26T01:21:54.607Z,7.62
2022-10-26T01:22:44.261Z,7.61
2022-10-26T01:23:23.217Z,7.69
2022-10-26T01:23:57.583Z,7.63
2022-10-26T01:24:53.419Z,7.65
2022-10-26T01:25:51.238Z,7.75
2022-10-26T01:27:43.247Z,7.77
2022-10-26T01:28:34.571Z,7.76
2022-10-26T01:29:21.490Z,7.62
2022-10-26T01:30:14.301Z,7.69
2022-10-26T01:30:48.804Z,7.72
2022-10-26T01:31:37.881Z,7.79
2022-10-26T01:32:18.595Z,7.75
2022-10-26T01:33:14.972Z,7.76
2022-10-26T01:34:11.114Z,7.82
2022-10-26T01:35:05.170Z,7.82
2022-10-26T01:35:52.599Z,7.82
2022-10-26T01:36:48.177Z,7.75
2022-10-26T01:37:24.809Z,7.69
2022-10-26T01:38:02.963Z,7.69
2022-10-26T01:38:57.897Z,7.72
2022-10-26T01:39:38.415Z,7.76
2022-10-26T01:40:17.990Z,7.73
2022-10-26T01:40:55.387Z,7.73
2022-10-26T01:41:33.025Z,7.69
2022-10-26T01:42:08.166Z,7.66
2022-10-26T01:42:44.470Z,7.72
2022-10-26T01:43:18.431Z,7.69
2022-10-26T01:43:55.235Z,7.70
2022-10-26T01:44:31.057Z,7.61
2022-10-26T01:45:09.878Z,7.70
2022-10-26T01:45:46.378Z,7.62
2022-10-26T01:46:54.450Z,7.49
2022-10-26T01:47:27.283Z,7.48
2022-10-26T01:47:59.897Z,7.56
2022-10-26T01:48:33.624Z,7.54
2022-10-26T01:49:09.894Z,7.56
2022-10-26T01:49:52.834Z,7.61
2022-10-26T01:50:24.721Z,7.66
2022-10-26T01:50:58.181Z,7.59
2022-10-26T01:51:31.159Z,7.52
2022-10-26T01:52:02.722Z,7.44
2022-10-26T01:52:34.370Z,7.52
2022-10-26T01:53:05.937Z,7.54
2022-10-26T01:53:44.713Z,7.59
2022-10-26T01:54:16.553Z,7.56
2022-10-26T01:54:48.200Z,7.58
2022-10-26T01:55:51.977Z,7.61
2022-10-26T01:56:30.270Z,7.54
2022-10-26T01:57:05.306Z,7.58
2022-10-26T01:57:38.497Z,7.46
2022-10-26T01:58:37.217Z,7.51
2022-10-26T01:59:11.718Z,7.38
2022-10-26T02:00:04.436Z,7.39
2022-10-26T02:01:45.592Z,7.49
2022-10-26T02:02:54.663Z,7.65
2022-10-26T02:03:52.125Z,7.66
2022-10-26T02:04:47.769Z,7.70
2022-10-26T02:05:25.063Z,7.73
2022-10-26T02:05:56.569Z,7.79
2022-10-26T02:07:01.170Z,7.82
2022-10-26T02:08:00.120Z,7.63
2022-10-26T02:09:06.714Z,7.75
2022-10-26T02:09:54.850Z,7.76
2022-10-26T02:10:40.652Z,7.77
2022-10-26T02:11:41.319Z,7.73
2022-10-26T02:12:23.910Z,7.56
2022-10-26T02:13:02.987Z,7.54
2022-10-26T02:13:52.798Z,7.51
2022-10-26T02:14:52.349Z,7.49
2022-10-26T02:15:35.850Z,7.38
2022-10-26T02:16:28.988Z,7.51
2022-10-26T02:17:10.006Z,7.36
2022-10-26T02:17:44.388Z,7.32
2022-10-26T02:18:25.448Z,7.25
2022-10-26T02:19:25.898Z,7.31
2022-10-26T02:20:05.034Z,7.08
2022-10-26T02:20:42.750Z,7.17
2022-10-26T02:21:22.626Z,7.08
2022-10-26T02:22:00.384Z,7.00
2022-10-26T02:22:39.804Z,6.98
2022-10-26T02:23:12.478Z,7.11
2022-10-26T02:23:47.538Z,7.01
2022-10-26T02:24:21.032Z,7.09
2022-10-26T02:24:54.606Z,7.14
2022-10-26T02:25:29.700Z,7.27
2022-10-26T02:26:05.742Z,7.34
2022-10-26T02:26:40.840Z,7.39
2022-10-26T02:27:20.238Z,7.38
2022-10-26T02:27:56.700Z,7.38
2022-10-26T02:28:34.190Z,7.28
2022-10-26T02:29:10.020Z,7.29
2022-10-26T02:29:44.025Z,7.39
2022-10-26T02:30:15.906Z,7.44
2022-10-26T02:30:50.913Z,7.45
2022-10-26T02:31:25.793Z,7.51
2022-10-26T02:31:57.790Z,7.55
2022-10-26T02:32:35.015Z,7.51
2022-10-26T02:33:10.815Z,7.45
2022-10-26T02:34:28.459Z,7.46
2022-10-26T02:35:02.726Z,7.44
2022-10-26T02:35:37.350Z,7.44
2022-10-26T02:36:13.943Z,7.39
2022-10-26T02:36:49.111Z,7.38
2022-10-26T02:37:23.306Z,7.46
2022-10-26T02:37:57.370Z,7.51
2022-10-26T02:38:32.716Z,7.54
2022-10-26T02:39:06.030Z,7.58
2022-10-26T02:39:40.161Z,7.58
2022-10-26T02:40:16.720Z,7.56
2022-10-26T02:40:50.806Z,7.52
2022-10-26T02:41:25.643Z,7.46
2022-10-26T02:41:58.613Z,7.42
2022-10-26T02:42:31.880Z,7.39
2022-10-26T02:43:07.782Z,7.32
2022-10-26T02:43:45.476Z,7.29
2022-10-26T02:44:24.329Z,7.17
2022-10-26T02:45:00.322Z,7.18
2022-10-26T02:45:37.529Z,7.21
2022-10-26T02:46:12.994Z,7.24
2022-10-26T02:46:45.031Z,7.24
2022-10-26T02:47:18.346Z,7.15
2022-10-26T02:47:50.837Z,7.21
2022-10-26T02:48:23.578Z,7.27
2022-10-26T02:48:56.121Z,7.18
2022-10-26T02:49:28.248Z,7.12
2022-10-26T02:50:00.152Z,7.11
2022-10-26T02:50:57.682Z,7.12
2022-10-26T02:51:44.005Z,7.05
2022-10-26T02:52:57.895Z,6.97
2022-10-26T02:53:40.342Z,7.03
2022-10-26T02:54:33.524Z,6.96
2022-10-26T02:55:12.478Z,7.12
2022-10-26T02:55:49.429Z,7.12
2022-10-26T02:56:28.167Z,7.21
2022-10-26T02:57:10.468Z,7.22
2022-10-26T02:57:49.439Z,7.27
2022-10-26T02:58:28.797Z,7.28
2022-10-26T02:59:04.542Z,7.28
2022-10-26T02:59:40.818Z,7.25
2022-10-26T03:00:16.048Z,7.25
2022-10-26T03:00:47.713Z,7.14
2022-10-26T03:01:19.469Z,7.08
2022-10-26T03:01:52.951Z,7.08
2022-10-26T03:02:24.838Z,7.09
2022-10-26T03:02:58.951Z,7.08
2022-10-26T03:03:30.541Z,7.09
2022-10-26T03:04:02.230Z,7.04
2022-10-26T03:04:35.459Z,7.08
2022-10-26T03:05:12.510Z,7.14
2022-10-26T03:05:44.108Z,7.14
2022-10-26T03:06:23.173Z,7.21
2022-10-26T03:06:55.500Z,7.25
2022-10-26T03:07:27.002Z,7.27
2022-10-26T03:07:59.478Z,7.27
2022-10-26T03:08:31.090Z,7.24
2022-10-26T03:09:02.799Z,7.19
2022-10-26T03:09:34.310Z,7.19
2022-10-26T03:10:06.456Z,7.18
2022-10-26T03:10:43.441Z,7.12
2022-10-26T03:11:14.982Z,7.05
2022-10-26T03:11:46.574Z,7.08
2022-10-26T03:12:18.130Z,7.07
2022-10-26T03:12:50.258Z,6.98
2022-10-26T03:13:21.997Z,6.91
2022-10-26T03:13:53.491Z,6.91
2022-10-26T03:14:25.217Z,6.98
2022-10-26T03:14:56.709Z,6.81
2022-10-26T03:15:28.245Z,6.75
2022-10-26T03:15:59.760Z,6.81
2022-10-26T03:16:31.297Z,6.79
2022-10-26T03:17:02.844Z,6.67
2022-10-26T03:17:34.339Z,6.52
2022-10-26T03:18:06.191Z,6.59
2022-10-26T03:18:37.800Z,6.54
2022-10-26T03:19:09.439Z,6.57
2022-10-26T03:19:40.967Z,6.54
2022-10-26T03:20:13.272Z,6.62
2022-10-26T03:20:45.918Z,6.69
2022-10-26T03:21:17.523Z,6.65
2022-10-26T03:21:49.082Z,6.66
2022-10-26T03:22:20.582Z,6.62
2022-10-26T03:22:52.119Z,6.57
2022-10-26T03:23:23.625Z,6.53
2022-10-26T03:23:55.206Z,6.40
2022-10-26T03:24:26.695Z,6.40
2022-10-26T03:24:58.235Z,6.50
2022-10-26T03:25:29.893Z,6.43
2022-10-26T03:26:01.461Z,6.46
2022-10-26T03:26:32.987Z,6.45
2022-10-26T03:27:04.538Z,6.43
2022-10-26T03:27:36.157Z,6.50
2022-10-26T03:28:07.687Z,6.56
2022-10-26T03:28:39.241Z,6.62
2022-10-26T03:29:10.740Z,6.69
2022-10-26T03:29:42.247Z,6.76
2022-10-26T03:30:13.782Z,6.79
2022-10-26T03:30:45.352Z,6.80
2022-10-26T03:31:16.891Z,6.80
2022-10-26T03:31:49.021Z,6.86
2022-10-26T03:32:20.542Z,6.96
2022-10-26T03:32:52.247Z,6.96
2022-10-26T03:33:27.052Z,6.90
2022-10-26T03:33:59.396Z,6.83
2022-10-26T03:34:30.913Z,6.86
2022-10-26T03:35:02.435Z,6.86
2022-10-26T03:35:33.945Z,6.80
2022-10-26T03:36:05.885Z,6.73
2022-10-26T03:36:37.398Z,6.84
2022-10-26T03:37:08.931Z,6.88
2022-10-26T03:37:40.575Z,6.93
2022-10-26T03:38:15.876Z,6.88
2022-10-26T03:38:47.715Z,6.93
2022-10-26T03:39:19.229Z,6.91
2022-10-26T03:39:50.730Z,7.00
2022-10-26T03:40:22.310Z,7.04
2022-10-26T03:40:53.809Z,7.09
2022-10-26T03:41:25.457Z,7.08
2022-10-26T03:41:56.992Z,7.07
2022-10-26T03:42:28.487Z,7.07
2022-10-26T03:43:00.028Z,7.07
2022-10-26T03:43:31.554Z,7.11
2022-10-26T03:44:03.163Z,7.12
2022-10-26T03:44:34.667Z,7.03
2022-10-26T03:45:08.203Z,7.07
2022-10-26T03:45:39.721Z,7.11
2022-10-26T03:46:11.276Z,7.14
2022-10-26T03:46:42.825Z,7.08
2022-10-26T03:47:14.340Z,6.98
2022-10-26T03:47:47.647Z,7.00
2022-10-26T03:48:19.237Z,6.88
2022-10-26T03:48:50.730Z,6.84
2022-10-26T03:49:22.249Z,6.83
2022-10-26T03:49:53.835Z,6.80
2022-10-26T03:50:25.379Z,6.69
2022-10-26T03:51:00.049Z,6.72
2022-10-26T03:51:31.835Z,6.67
2022-10-26T03:52:03.612Z,6.75
2022-10-26T03:52:35.118Z,6.73
2022-10-26T03:53:07.084Z,6.70
2022-10-26T03:53:38.625Z,6.73
2022-10-26T03:54:10.392Z,6.57
2022-10-26T03:54:41.934Z,6.65
2022-10-26T03:55:13.852Z,6.63
2022-10-26T03:55:45.409Z,6.65
2022-10-26T03:56:16.906Z,6.62
2022-10-26T03:56:52.657Z,6.59
2022-10-26T03:57:26.587Z,6.63
2022-10-26T03:57:58.178Z,6.66
2022-10-26T03:58:29.711Z,6.72
2022-10-26T03:59:01.304Z,6.75
2022-10-26T03:59:32.808Z,6.76
2022-10-26T04:00:04.769Z,6.80
2022-10-26T04:00:36.277Z,6.84
2022-10-26T04:01:07.823Z,6.80
2022-10-26T04:01:40.212Z,6.76
2022-10-26T04:02:12.261Z,6.73
2022-10-26T04:02:49.853Z,6.76
2022-10-26T04:03:21.604Z,6.83
2022-10-26T04:03:53.144Z,6.87
2022-10-26T04:04:24.868Z,6.91
2022-10-26T04:04:56.482Z,6.90
2022-10-26T04:05:29.515Z,6.90
2022-10-26T04:06:02.053Z,6.97
2022-10-26T04:06:33.612Z,6.96
2022-10-26T04:07:05.172Z,7.00
2022-10-26T04:07:36.682Z,6.98
2022-10-26T04:08:08.964Z,7.01
2022-10-26T04:08:40.519Z,7.03
2022-10-26T04:09:12.045Z,6.94
2022-10-26T04:09:43.566Z,7.00
2022-10-26T04:10:15.139Z,6.77
2022-10-26T04:10:47.566Z,6.87
2022-10-26T04:11:19.103Z,6.91
2022-10-26T04:11:50.613Z,6.88
2022-10-26T04:12:22.152Z,6.93
2022-10-26T04:12:54.993Z,6.91
2022-10-26T04:13:26.509Z,6.94
2022-10-26T04:14:00.705Z,7.03
2022-10-26T04:14:32.254Z,6.90
2022-10-26T04:15:04.417Z,6.87
2022-10-26T04:15:35.913Z,6.84
2022-10-26T04:16:07.740Z,6.77
2022-10-26T04:16:39.312Z,6.86
2022-10-26T04:17:10.819Z,6.91
2022-10-26T04:17:42.640Z,6.90
2022-10-26T04:18:14.334Z,6.81
2022-10-26T04:18:46.605Z,6.73
2022-10-26T04:19:18.143Z,6.79
2022-10-26T04:19:49.649Z,6.76
2022-10-26T04:20:21.187Z,6.75
2022-10-26T04:20:52.790Z,6.72
2022-10-26T04:21:24.312Z,6.73
2022-10-26T04:21:55.816Z,6.77
2022-10-26T04:22:27.385Z,6.81
2022-10-26T04:23:04.723Z,6.80
2022-10-26T04:23:36.221Z,6.73
2022-10-26T04:24:07.918Z,6.66
2022-10-26T04:24:39.414Z,6.70
2022-10-26T04:25:12.320Z,6.70
2022-10-26T04:25:44.860Z,6.67
2022-10-26T04:26:16.358Z,6.66
2022-10-26T04:26:47.866Z,6.67
2022-10-26T04:27:19.423Z,6.65
2022-10-26T04:27:51.302Z,6.57
2022-10-26T04:28:23.044Z,6.57
2022-10-26T04:28:54.693Z,6.59
2022-10-26T04:29:26.190Z,6.63
2022-10-26T04:29:57.982Z,6.60
2022-10-26T04:30:30.510Z,6.62
2022-10-26T04:31:02.167Z,6.56
2022-10-26T04:31:33.894Z,6.57
2022-10-26T04:32:07.276Z,6.65
2022-10-26T04:32:38.779Z,6.63
2022-10-26T04:33:10.789Z,6.66
2022-10-26T04:33:42.335Z,6.63
2022-10-26T04:34:13.912Z,6.66
2022-10-26T04:34:45.499Z,6.67
2022-10-26T04:35:17.275Z,6.67
2022-10-26T04:35:48.784Z,6.63
2022-10-26T04:36:20.324Z,6.67
2022-10-26T04:36:51.847Z,6.75
2022-10-26T04:37:23.414Z,6.67
2022-10-26T04:38:02.796Z,6.69
2022-10-26T04:38:34.293Z,6.76
2022-10-26T04:39:05.816Z,6.75
2022-10-26T04:39:37.423Z,6.76
2022-10-26T04:40:09.370Z,6.77
2022-10-26T04:40:40.878Z,6.75
2022-10-26T04:41:12.413Z,6.70
2022-10-26T04:41:43.931Z,6.66
2022-10-26T04:42:15.434Z,6.69
2022-10-26T04:42:48.144Z,6.69
2022-10-26T04:43:20.075Z,6.63
2022-10-26T04:43:51.717Z,6.70
2022-10-26T04:44:23.252Z,6.69
2022-10-26T04:44:54.807Z,6.70
2022-10-26T04:45:28.567Z,6.63
2022-10-26T04:46:00.163Z,6.70
2022-10-26T04:46:31.817Z,6.70
2022-10-26T04:47:03.339Z,6.69
2022-10-26T04:47:34.851Z,6.67
2022-10-26T04:48:09.566Z,6.70
2022-10-26T04:48:41.115Z,6.70
2022-10-26T04:49:12.647Z,6.70
2022-10-26T04:49:44.241Z,6.73
2022-10-26T04:50:15.794Z,6.76
2022-10-26T04:50:47.619Z,6.81
2022-10-26T04:51:19.139Z,6.81
2022-10-26T04:51:50.643Z,6.83
2022-10-26T04:52:22.146Z,6.79
2022-10-26T04:52:53.860Z,6.77
2022-10-26T04:53:25.575Z,6.75
2022-10-26T04:53:58.238Z,6.83
2022-10-26T04:54:29.739Z,6.81
2022-10-26T04:55:01.516Z,6.84
2022-10-26T04:55:33.482Z,6.83
2022-10-26T04:56:05.104Z,6.87
2022-10-26T04:56:36.674Z,6.84
2022-10-26T04:57:08.211Z,6.83
2022-10-26T04:57:39.715Z,6.81
2022-10-26T04:58:11.227Z,6.77
2022-10-26T04:58:42.768Z,6.73
2022-10-26T04:59:14.408Z,6.79
2022-10-26T04:59:45.903Z,6.80
2022-10-26T05:00:17.529Z,6.77
2022-10-26T05:00:49.019Z,6.83
2022-10-26T05:01:20.764Z,6.83
2022-10-26T05:01:52.515Z,6.83
2022-10-26T05:02:24.286Z,6.83
2022-10-26T05:03:03.560Z,6.86
2022-10-26T05:03:35.078Z,6.90
2022-10-26T05:04:06.622Z,6.91
2022-10-26T05:04:38.130Z,6.94
2022-10-26T05:05:12.662Z,6.91
2022-10-26T05:05:47.837Z,6.94
2022-10-26T05:06:20.430Z,6.96
2022-10-26T05:06:53.809Z,6.97
2022-10-26T05:07:25.344Z,6.98
2022-10-26T05:07:57.556Z,6.93
2022-10-26T05:08:32.143Z,6.91
2022-10-26T05:09:03.835Z,6.96
2022-10-26T05:09:35.339Z,7.07
2022-10-26T05:10:07.585Z,7.05
2022-10-26T05:10:39.092Z,7.05
2022-10-26T05:11:10.757Z,7.07
2022-10-26T05:11:42.266Z,7.09
2022-10-26T05:12:13.822Z,7.03
2022-10-26T05:12:53.975Z,6.86
2022-10-26T05:14:01.969Z,6.53
2022-10-26T05:14:33.471Z,6.43
2022-10-26T05:15:07.814Z,6.54
2022-10-26T05:15:40.180Z,6.56
2022-10-26T05:16:11.676Z,6.56
2022-10-26T05:16:44.556Z,6.49
2022-10-26T05:17:16.258Z,6.62
2022-10-26T05:17:48.579Z,6.63
2022-10-26T05:18:20.409Z,6.67
2022-10-26T05:18:51.904Z,6.73
2022-10-26T05:19:23.569Z,6.62
2022-10-26T05:20:00.236Z,6.62
2022-10-26T05:20:34.153Z,6.59
2022-10-26T05:21:05.725Z,6.63
2022-10-26T05:21:37.315Z,6.65
2022-10-26T05:22:09.678Z,6.73
2022-10-26T05:22:41.279Z,6.73
2022-10-26T05:23:13.895Z,6.73
2022-10-26T05:23:51.662Z,6.77
2022-10-26T05:24:23.185Z,6.83
2022-10-26T05:24:54.729Z,6.90
2022-10-26T05:25:26.794Z,6.88
2022-10-26T05:25:58.361Z,6.96
2022-10-26T05:26:29.986Z,6.91
2022-10-26T05:27:01.545Z,6.91
2022-10-26T05:27:33.082Z,6.98
2022-10-26T05:28:08.500Z,6.90
2022-10-26T05:28:40.009Z,7.00
2022-10-26T05:29:11.611Z,7.05
2022-10-26T05:29:43.119Z,7.09
2022-10-26T05:30:14.743Z,7.14
2022-10-26T05:30:46.551Z,7.18
2022-10-26T05:31:20.441Z,7.25
2022-10-26T05:31:52.381Z,7.17
2022-10-26T05:32:23.979Z,7.21
2022-10-26T05:33:00.642Z,7.14
2022-10-26T05:33:32.145Z,7.21
2022-10-26T05:34:03.940Z,7.27
2022-10-26T05:34:38.233Z,7.31
2022-10-26T05:35:12.344Z,7.29
2022-10-26T05:35:43.890Z,7.28
2022-10-26T05:36:15.425Z,7.27
2022-10-26T05:36:46.995Z,7.22
2022-10-26T05:37:18.506Z,7.27
2022-10-26T05:37:50.303Z,7.32
2022-10-26T05:38:21.892Z,7.36
2022-10-26T05:38:53.429Z,7.41
2022-10-26T05:39:24.921Z,7.41
2022-10-26T05:39:56.421Z,7.38
2022-10-26T05:40:27.989Z,7.44
2022-10-26T05:41:01.197Z,7.46
2022-10-26T05:41:32.720Z,7.46
2022-10-26T05:42:04.234Z,7.49
2022-10-26T05:42:35.747Z,7.48
2022-10-26T05:43:07.344Z,7.42
2022-10-26T05:43:39.029Z,7.38
2022-10-26T05:44:10.549Z,7.32
2022-10-26T05:44:42.117Z,7.35
2022-10-26T05:45:13.907Z,7.31
2022-10-26T05:45:45.887Z,7.19
2022-10-26T05:46:17.403Z,7.22
2022-10-26T05:47:21.362Z,7.25
2022-10-26T05:47:53.994Z,7.21
2022-10-26T05:48:27.867Z,7.22
2022-10-26T05:48:59.445Z,7.12
2022-10-26T05:49:30.956Z,7.12
2022-10-26T05:50:02.466Z,7.15
2022-10-26T05:50:33.999Z,7.24
2022-10-26T05:51:05.807Z,7.32
2022-10-26T05:51:37.424Z,7.27
2022-10-26T05:52:08.933Z,7.27
2022-10-26T05:52:45.101Z,7.25
2022-10-26T05:53:16.618Z,7.18
2022-10-26T05:53:48.592Z,7.31
2022-10-26T05:54:20.127Z,7.31
2022-10-26T05:54:51.641Z,7.32
2022-10-26T05:55:23.532Z,7.32
2022-10-26T05:55:56.205Z,7.44
2022-10-26T05:56:39.401Z,7.44
2022-10-26T05:57:15.244Z,7.48
2022-10-26T05:57:47.363Z,7.52
2022-10-26T05:58:19.454Z,7.49
2022-10-26T05:58:51.226Z,7.49
2022-10-26T05:59:23.064Z,7.52
2022-10-26T05:59:54.945Z,7.52
2022-10-26T06:00:28.792Z,7.54
2022-10-26T06:01:37.024Z,7.35
2022-10-26T06:02:23.709Z,7.41
2022-10-26T06:03:32.993Z,7.48
2022-10-26T06:04:31.990Z,7.54
2022-10-26T06:05:04.821Z,7.59
2022-10-26T06:05:50.710Z,7.66
2022-10-26T06:06:22.935Z,7.61
2022-10-26T06:06:55.035Z,7.73
2022-10-26T06:07:26.776Z,7.66
2022-10-26T06:07:58.666Z,7.69
2022-10-26T06:08:30.610Z,7.86
2022-10-26T06:09:02.456Z,7.91
2022-10-26T06:09:34.245Z,7.96
2022-10-26T06:10:06.324Z,7.98
2022-10-26T06:10:39.340Z,7.97
2022-10-26T06:11:11.242Z,7.96
2022-10-26T06:11:43.237Z,7.96
2022-10-26T06:12:18.427Z,7.93
2022-10-26T06:12:52.042Z,7.93
2022-10-26T06:13:24.085Z,8.06
2022-10-26T06:14:00.256Z,8.01
2022-10-26T06:14:32.242Z,8.08
2022-10-26T06:15:04.932Z,8.11
2022-10-26T06:16:02.446Z,8.16
2022-10-26T06:17:05.136Z,8.20
2022-10-26T06:17:49.155Z,8.24
2022-10-26T06:18:35.281Z,8.34
2022-10-26T06:19:15.503Z,8.38
2022-10-26T06:21:18.939Z,8.49
2022-10-26T06:22:16.887Z,8.46
2022-10-26T06:23:01.219Z,8.46
2022-10-26T06:23:58.647Z,8.54
2022-10-26T06:24:51.779Z,8.62
2022-10-26T06:25:35.065Z,8.69
2022-10-26T06:26:09.673Z,8.83
2022-10-26T06:26:49.848Z,8.90
2022-10-26T06:27:27.572Z,8.99
2022-10-26T06:28:17.586Z,9.09
2022-10-26T06:29:26.645Z,9.20
2022-10-26T06:30:06.094Z,9.16
2022-10-26T06:30:40.488Z,9.19
2022-10-26T06:31:13.866Z,9.23
2022-10-26T06:31:46.966Z,9.23
2022-10-26T06:32:18.563Z,9.24
2022-10-26T06:33:01.244Z,9.07
2022-10-26T06:33:43.122Z,9.22
2022-10-26T06:34:22.974Z,9.28
2022-10-26T06:35:10.948Z,9.27
2022-10-26T06:35:45.405Z,9.23
2022-10-26T06:36:27.005Z,9.09
2022-10-26T06:37:01.012Z,8.97
2022-10-26T06:37:32.838Z,8.95
2022-10-26T06:38:09.757Z,8.96
2022-10-26T06:38:44.672Z,9.13
2022-10-26T06:39:17.823Z,9.20
2022-10-26T06:39:53.899Z,9.20
2022-10-26T06:40:26.905Z,9.24
2022-10-26T06:40:59.869Z,9.30
2022-10-26T06:41:34.112Z,9.24
2022-10-26T06:42:06.493Z,9.27
2022-10-26T06:42:38.222Z,9.31
2022-10-26T06:43:16.894Z,9.19
2022-10-26T06:43:48.790Z,9.24
2022-10-26T06:44:24.062Z,9.33
2022-10-26T06:44:55.910Z,9.31
2022-10-26T06:45:27.717Z,9.38
2022-10-26T06:46:05.100Z,9.45
2022-10-26T06:46:44.029Z,9.44
2022-10-26T06:47:23.427Z,9.64
2022-10-26T06:48:05.000Z,9.64
2022-10-26T06:49:08.784Z,9.84
2022-10-26T06:49:52.946Z,9.88
2022-10-26T06:50:42.506Z,9.86
2022-10-26T06:51:17.292Z,9.99
2022-10-26T06:52:07.582Z,10.05
2022-10-26T06:52:47.305Z,10.24
2022-10-26T06:54:11.519Z,10.16
2022-10-26T06:54:53.182Z,10.50
2022-10-26T06:55:26.889Z,10.63
2022-10-26T06:55:59.753Z,10.67
2022-10-26T06:56:31.990Z,10.67
2022-10-26T06:57:03.852Z,10.74
2022-10-26T06:57:37.907Z,10.85
2022-10-26T06:58:15.685Z,10.63
2022-10-26T06:58:49.460Z,10.64
2022-10-26T06:59:44.597Z,10.75
2022-10-26T07:00:25.399Z,10.78
2022-10-26T07:00:57.609Z,10.91
2022-10-26T07:01:29.257Z,10.95
2022-10-26T07:02:03.064Z,11.01
2022-10-26T07:02:37.861Z,11.00
2022-10-26T07:03:09.430Z,11.14
2022-10-26T07:03:40.975Z,11.14
2022-10-26T07:04:12.514Z,11.28
2022-10-26T07:04:44.508Z,11.39
2022-10-26T07:05:16.085Z,11.46
2022-10-26T07:05:47.845Z,11.40
2022-10-26T07:06:57.151Z,11.40
2022-10-26T07:07:31.150Z,11.42
2022-10-26T07:08:02.755Z,11.58
2022-10-26T07:08:34.353Z,11.60
2022-10-26T07:09:05.897Z,11.50
2022-10-26T07:09:37.415Z,11.59
2022-10-26T07:10:10.602Z,11.60
2022-10-26T07:10:42.823Z,11.55
2022-10-26T07:11:14.375Z,11.62
2022-10-26T07:11:45.912Z,11.33
2022-10-26T07:12:17.629Z,11.28
2022-10-26T07:12:49.782Z,11.28
2022-10-26T07:13:21.332Z,11.33
2022-10-26T07:13:52.873Z,11.42
2022-10-26T07:14:24.376Z,11.63
2022-10-26T07:14:55.986Z,11.46
2022-10-26T07:15:27.529Z,11.58
2022-10-26T07:15:59.040Z,11.70
2022-10-26T07:16:30.638Z,11.79
2022-10-26T07:17:02.442Z,12.00
2022-10-26T07:17:46.918Z,12.13
2022-10-26T07:18:18.643Z,11.97
2022-10-26T07:18:50.192Z,12.17
2022-10-26T07:19:21.727Z,12.07
2022-10-26T07:19:53.271Z,11.80
2022-10-26T07:20:24.894Z,11.87
2022-10-26T07:20:58.989Z,11.94
2022-10-26T07:21:30.515Z,11.74
2022-10-26T07:22:02.399Z,11.74
2022-10-26T07:22:33.931Z,11.79
2022-10-26T07:23:13.103Z,11.73
2022-10-26T07:23:44.682Z,11.62
2022-10-26T07:24:16.274Z,11.63
2022-10-26T07:24:51.766Z,11.70
2022-10-26T07:25:25.164Z,11.63
2022-10-26T07:25:59.920Z,11.52
2022-10-26T07:26:31.429Z,11.49
2022-10-26T07:27:03.099Z,11.69
2022-10-26T07:27:34.983Z,11.56
2022-10-26T07:28:10.094Z,11.53
2022-10-26T07:28:41.657Z,11.58
2022-10-26T07:29:14.026Z,11.29
2022-10-26T07:29:45.666Z,11.43
2022-10-26T07:30:17.576Z,11.26
2022-10-26T07:30:52.772Z,11.46
2022-10-26T07:31:27.428Z,11.47
2022-10-26T07:31:58.954Z,11.39
2022-10-26T07:32:30.488Z,11.15
2022-10-26T07:33:13.626Z,11.04
2022-10-26T07:33:45.387Z,10.91
2022-10-26T07:34:17.090Z,11.01
2022-10-26T07:34:48.619Z,11.19
2022-10-26T07:35:20.126Z,11.38
2022-10-26T07:35:52.941Z,11.23
2022-10-26T07:36:24.536Z,11.25
2022-10-26T07:36:56.074Z,11.19
2022-10-26T07:37:28.047Z,11.28
2022-10-26T07:38:00.091Z,11.29
2022-10-26T07:38:31.626Z,11.28
2022-10-26T07:39:04.108Z,11.33
2022-10-26T07:39:35.725Z,11.30
2022-10-26T07:40:08.085Z,11.29
2022-10-26T07:40:39.672Z,11.33
2022-10-26T07:41:12.085Z,11.40
2022-10-26T07:41:45.117Z,11.25
2022-10-26T07:42:16.771Z,11.16
2022-10-26T07:42:48.315Z,10.98
2022-10-26T07:43:20.375Z,11.15
2022-10-26T07:43:52.018Z,11.22
2022-10-26T07:44:23.534Z,11.07
2022-10-26T07:44:55.047Z,11.09
2022-10-26T07:45:27.799Z,11.16
2022-10-26T07:45:59.370Z,10.97
2022-10-26T07:46:30.894Z,11.07
2022-10-26T07:47:02.539Z,11.09
2022-10-26T07:47:34.066Z,11.11
2022-10-26T07:48:05.814Z,11.14
2022-10-26T07:48:37.346Z,11.30
2022-10-26T07:49:08.899Z,11.00
2022-10-26T07:49:40.411Z,11.04